Forside
METAR-TAF:

METAR-TAF

Lufthavne :

Clinton Municipal Airport

Clinton, Iowa, USA

Breddekreds: 41-50N, længdekreds: 090-20W, højde: 216 m

Aktuelle vejr

Denne rapport blev lavet for 52 minutter siden, kl. 02:56 UTC
Vind 7 kt fra nordvest
Temperatur -6°C
Fugtighed 79%
Tryk 1020 hPa
Sigt: 16.1 km
skyfri

METAR: KCWI 280256Z AUTO 31007KT 10SM CLR M06/M09 A3011 RMK AO2 SLP212 T10611089 51007 FZRANO

Tid: 21:48 (03:48 UTC)


TAF: fraværende

Vejrobservationer og prognoser fra mere end 4000 lufthavne (METAR og TAF).

De gule og røde prikker repræsenterer de meteorologiske stationer.

Flyt musen over at se navnet på stationen.

Så klik over at se vejr observationer og prognoser.

At skifte det kort: Klik på de grønne knapper med et sort kors for at zoome ind; på den grønne knap med en bindestreg for at zoome ud; eller på de grønne pile for tilstødende kort.


METAR-TAF: